Time;durP1;ratioP1;P1;durP2;ratioP2;P2;SDS_P1;SDS_P2;PMS_P1;PMS_P2;Temp;Humidity;BMP_temperature;BMP_pressure;BME280_temperature;BME280_humidity;BME280_pressure;Samples;Min_cycle;Max_cycle;Signal;HPM_P1;HPM_P2
2023/12/02 00:02:20;;;;;;;1999.90;999.90;;;;;;;;;;4952641;29;20387;-56
2023/12/02 00:04:46;;;;;;;1999.90;999.90;;;;;;;;;;4952404;29;20023;-57
2023/12/02 00:07:12;;;;;;;1999.90;999.90;;;;;;;;;;4952275;29;20034;-57
2023/12/02 00:09:38;;;;;;;1999.90;999.90;;;;;;;;;;4952218;29;20114;-57
2023/12/02 00:12:04;;;;;;;1999.90;999.90;;;;;;;;;;4951741;28;20066;-57
2023/12/02 00:14:31;;;;;;;1999.90;999.90;;;;;;;;;;4952249;29;20039;-56
2023/12/02 00:16:57;;;;;;;1999.90;999.90;;;;;;;;;;4952425;29;20034;-57
2023/12/02 00:19:23;;;;;;;1999.90;999.90;;;;;;;;;;4952344;29;20035;-64
2023/12/02 00:21:50;;;;;;;1999.90;999.90;;;;;;;;;;4951936;29;20534;-57
2023/12/02 00:24:16;;;;;;;1999.90;999.90;;;;;;;;;;4952426;29;20023;-56
2023/12/02 00:26:42;;;;;;;1999.90;999.90;;;;;;;;;;4952321;29;20027;-64
2023/12/02 00:29:08;;;;;;;1999.90;999.90;;;;;;;;;;4952242;29;20045;-57
2023/12/02 00:31:34;;;;;;;1999.90;999.90;;;;;;;;;;4952344;29;20181;-57
2023/12/02 00:34:01;;;;;;;1999.90;999.90;;;;;;;;;;4952382;29;20054;-55
2023/12/02 00:36:27;;;;;;;1999.90;999.90;;;;;;;;;;4952151;29;20027;-64
2023/12/02 00:38:53;;;;;;;1999.90;999.90;;;;;;;;;;4952238;28;20042;-63
2023/12/02 00:41:19;;;;;;;1999.90;999.90;;;;;;;;;;4955553;29;20537;-57
2023/12/02 00:43:46;;;;;;;1999.90;999.90;;;;;;;;;;4955522;29;20042;-60
2023/12/02 00:46:12;;;;;;;1999.90;999.90;;;;;;;;;;4955462;29;20038;-55
2023/12/02 00:48:38;;;;;;;1999.90;999.90;;;;;;;;;;4955159;29;20387;-55
2023/12/02 00:51:04;;;;;;;1999.90;999.90;;;;;;;;;;4955518;29;20091;-57
2023/12/02 00:53:30;;;;;;;1999.90;999.90;;;;;;;;;;4955205;29;20122;-59
2023/12/02 00:55:56;;;;;;;1999.90;999.90;;;;;;;;;;4955391;28;20023;-60
2023/12/02 00:58:22;;;;;;;1999.90;999.90;;;;;;;;;;4955112;29;20553;-58
2023/12/02 01:00:48;;;;;;;1999.90;999.90;;;;;;;;;;4955197;29;20494;-61
2023/12/02 01:03:14;;;;;;;1999.90;999.90;;;;;;;;;;4955269;29;20034;-56
2023/12/02 01:05:40;;;;;;;1999.90;999.90;;;;;;;;;;4955001;29;20035;-55
2023/12/02 01:08:06;;;;;;;1999.90;999.90;;;;;;;;;;4954886;29;20038;-59
2023/12/02 01:10:32;;;;;;;1999.90;999.90;;;;;;;;;;4955088;29;20038;-56
2023/12/02 01:12:58;;;;;;;1999.90;999.90;;;;;;;;;;4954425;28;20054;-55
2023/12/02 01:15:25;;;;;;;1999.90;999.90;;;;;;;;;;4955101;29;20126;-60
2023/12/02 01:17:51;;;;;;;1999.90;999.90;;;;;;;;;;4954988;29;20415;-57
2023/12/02 01:20:17;;;;;;;1999.90;999.90;;;;;;;;;;4954806;29;20028;-63
2023/12/02 01:22:43;;;;;;;1999.90;999.90;;;;;;;;;;4954955;29;20027;-63
2023/12/02 01:25:09;;;;;;;1999.90;999.90;;;;;;;;;;4954854;29;20035;-63
2023/12/02 01:27:35;;;;;;;1999.90;999.90;;;;;;;;;;4954688;29;20023;-55
2023/12/02 01:30:01;;;;;;;1999.90;999.90;;;;;;;;;;4954650;28;20031;-56
2023/12/02 01:32:27;;;;;;;1999.90;999.90;;;;;;;;;;4954556;29;20026;-58
2023/12/02 01:34:53;;;;;;;1999.90;999.90;;;;;;;;;;4954626;29;20039;-57
2023/12/02 01:37:19;;;;;;;1999.90;999.90;;;;;;;;;;4954575;29;20490;-62
2023/12/02 01:39:45;;;;;;;1999.90;999.90;;;;;;;;;;4954060;29;20471;-55
2023/12/02 01:42:12;;;;;;;1999.90;999.90;;;;;;;;;;4954445;28;20023;-57
2023/12/02 01:44:38;;;;;;;1999.90;999.90;;;;;;;;;;4954251;29;20079;-61
2023/12/02 01:47:04;;;;;;;1999.90;999.90;;;;;;;;;;4954134;29;20047;-59
2023/12/02 01:49:31;;;;;;;1999.90;999.90;;;;;;;;;;4954246;29;20031;-54
2023/12/02 01:51:57;;;;;;;1999.90;999.90;;;;;;;;;;4953799;28;20031;-58
2023/12/02 01:54:23;;;;;;;1999.90;999.90;;;;;;;;;;4954173;29;20046;-55
2023/12/02 01:56:50;;;;;;;1999.90;999.90;;;;;;;;;;4954395;29;20023;-56
2023/12/02 01:59:16;;;;;;;1999.90;999.90;;;;;;;;;;4953849;28;20078;-57
2023/12/02 02:01:42;;;;;;;1999.90;999.90;;;;;;;;;;4954227;29;20167;-57
2023/12/02 02:04:08;;;;;;;1999.90;999.90;;;;;;;;;;4954104;29;20079;-59
2023/12/02 02:06:34;;;;;;;1999.90;999.90;;;;;;;;;;4953182;29;20121;-57
2023/12/02 02:09:00;;;;;;;1999.90;999.90;;;;;;;;;;4953708;29;20062;-55
2023/12/02 02:11:26;;;;;;;1999.90;999.90;;;;;;;;;;4953509;28;20050;-65
2023/12/02 02:13:52;;;;;;;1999.90;999.90;;;;;;;;;;4952929;29;20051;-56
2023/12/02 02:16:18;;;;;;;1999.90;999.90;;;;;;;;;;4953014;29;20027;-62
2023/12/02 02:18:44;;;;;;;1999.90;999.90;;;;;;;;;;4952885;29;20109;-56
2023/12/02 02:21:11;;;;;;;1999.90;999.90;;;;;;;;;;4953406;29;20034;-56
2023/12/02 02:23:37;;;;;;;1999.90;999.90;;;;;;;;;;4953425;29;20391;-65
2023/12/02 02:26:03;;;;;;;1999.90;999.90;;;;;;;;;;4953620;29;20133;-64
2023/12/02 02:28:29;;;;;;;1999.90;999.90;;;;;;;;;;4953836;29;20494;-64
2023/12/02 02:30:55;;;;;;;1999.90;999.90;;;;;;;;;;4953617;28;20035;-64
2023/12/02 02:33:21;;;;;;;1999.90;999.90;;;;;;;;;;4953692;29;20039;-57
2023/12/02 02:35:47;;;;;;;1999.90;999.90;;;;;;;;;;4953517;29;20027;-56
2023/12/02 02:38:14;;;;;;;1999.90;999.90;;;;;;;;;;4953505;29;20027;-65
2023/12/02 02:40:40;;;;;;;1999.90;999.90;;;;;;;;;;4953614;29;20023;-61
2023/12/02 02:43:06;;;;;;;1999.90;999.90;;;;;;;;;;4953238;29;20373;-56
2023/12/02 02:45:32;;;;;;;1999.90;999.90;;;;;;;;;;4953653;29;20386;-57
2023/12/02 02:47:58;;;;;;;1999.90;999.90;;;;;;;;;;4953256;29;20027;-56
2023/12/02 02:50:25;;;;;;;1999.90;999.90;;;;;;;;;;4953240;29;20546;-56
2023/12/02 02:52:51;;;;;;;1999.90;999.90;;;;;;;;;;4953214;29;20042;-57
2023/12/02 02:55:17;;;;;;;1999.90;999.90;;;;;;;;;;4953317;29;20144;-58
2023/12/02 02:57:43;;;;;;;1999.90;999.90;;;;;;;;;;4952938;28;20117;-56
2023/12/02 03:00:09;;;;;;;1999.90;999.90;;;;;;;;;;4953219;29;20023;-57
2023/12/02 03:02:37;;;;;;;1999.90;999.90;;;;;;;;;;4952920;28;20059;-56
2023/12/02 03:05:04;;;;;;;1999.90;999.90;;;;;;;;;;4952814;29;20497;-57
2023/12/02 03:07:30;;;;;;;1999.90;999.90;;;;;;;;;;4953033;29;20117;-62
2023/12/02 03:09:59;;;;;;;1999.90;999.90;;;;;;;;;;4953104;29;20059;-56
2023/12/02 03:12:26;;;;;;;1999.90;999.90;;;;;;;;;;4952470;28;20055;-56
2023/12/02 03:14:53;;;;;;;1999.90;999.90;;;;;;;;;;4952905;29;20042;-56
2023/12/02 03:17:19;;;;;;;1999.90;999.90;;;;;;;;;;4953051;29;20027;-64
2023/12/02 03:19:45;;;;;;;1999.90;999.90;;;;;;;;;;4952789;29;20023;-55
2023/12/02 03:22:11;;;;;;;1999.90;999.90;;;;;;;;;;4952907;29;20031;-56
2023/12/02 03:24:37;;;;;;;1999.90;999.90;;;;;;;;;;4952803;29;20098;-56
2023/12/02 03:27:03;;;;;;;1999.90;999.90;;;;;;;;;;4952811;29;20494;-58
2023/12/02 03:29:29;;;;;;;1999.90;999.90;;;;;;;;;;4952820;29;20031;-61
2023/12/02 03:31:55;;;;;;;1999.90;999.90;;;;;;;;;;4952703;29;20391;-60
2023/12/02 03:34:22;;;;;;;1999.90;999.90;;;;;;;;;;4952693;29;20039;-57
2023/12/02 03:36:48;;;;;;;1999.90;999.90;;;;;;;;;;4952628;29;20372;-55
2023/12/02 03:39:15;;;;;;;1999.90;999.90;;;;;;;;;;4952873;29;20548;-55
2023/12/02 03:41:41;;;;;;;1999.90;999.90;;;;;;;;;;4952609;29;20058;-54
2023/12/02 03:44:07;;;;;;;1999.90;999.90;;;;;;;;;;4952640;29;20040;-63
2023/12/02 03:46:35;;;;;;;1999.90;999.90;;;;;;;;;;4952866;28;20094;-63
2023/12/02 03:49:01;;;;;;;1999.90;999.90;;;;;;;;;;4952527;29;20027;-54
2023/12/02 03:51:27;;;;;;;1999.90;999.90;;;;;;;;;;4952344;29;20030;-60
2023/12/02 03:53:53;;;;;;;1999.90;999.90;;;;;;;;;;4952504;29;20076;-55
2023/12/02 03:56:20;;;;;;;1999.90;999.90;;;;;;;;;;4952448;29;20082;-55
2023/12/02 03:58:46;;;;;;;1999.90;999.90;;;;;;;;;;4952439;29;20038;-61
2023/12/02 04:01:13;;;;;;;1999.90;999.90;;;;;;;;;;4952554;29;20459;-56
2023/12/02 04:03:39;;;;;;;1999.90;999.90;;;;;;;;;;4952180;29;20039;-60
2023/12/02 04:06:05;;;;;;;1999.90;999.90;;;;;;;;;;4952475;29;20131;-56
2023/12/02 04:08:31;;;;;;;1999.90;999.90;;;;;;;;;;4952149;29;20038;-55
2023/12/02 04:10:57;;;;;;;1999.90;999.90;;;;;;;;;;4952372;29;20121;-56
2023/12/02 04:13:23;;;;;;;1999.90;999.90;;;;;;;;;;4952087;28;20495;-57
2023/12/02 04:15:50;;;;;;;1999.90;999.90;;;;;;;;;;4955426;29;20485;-57
2023/12/02 04:18:16;;;;;;;1999.90;999.90;;;;;;;;;;4956103;29;20027;-57
2023/12/02 04:20:42;;;;;;;1999.90;999.90;;;;;;;;;;4955804;29;20038;-56
2023/12/02 04:23:08;;;;;;;1999.90;999.90;;;;;;;;;;4955874;29;20516;-55
2023/12/02 04:25:34;;;;;;;1999.90;999.90;;;;;;;;;;4955933;29;20035;-54
2023/12/02 04:28:01;;;;;;;1999.90;999.90;;;;;;;;;;4955846;29;20511;-62
2023/12/02 04:30:27;;;;;;;1999.90;999.90;;;;;;;;;;4955933;29;20035;-57
2023/12/02 04:32:53;;;;;;;1999.90;999.90;;;;;;;;;;4955615;29;20594;-62
2023/12/02 04:35:19;;;;;;;1999.90;999.90;;;;;;;;;;4955652;29;20035;-57
2023/12/02 04:37:45;;;;;;;1999.90;999.90;;;;;;;;;;4938298;29;20125;-58
2023/12/02 04:40:11;;;;;;;1999.90;999.90;;;;;;;;;;4955576;29;20027;-54
2023/12/02 04:42:41;;;;;;;1999.90;999.90;;;;;;;;;;4955530;29;20036;-55
2023/12/02 04:45:08;;;;;;;1999.90;999.90;;;;;;;;;;4955383;29;20050;-59
2023/12/02 04:47:36;;;;;;;1999.90;999.90;;;;;;;;;;4955547;29;20041;-56
2023/12/02 04:50:03;;;;;;;1999.90;999.90;;;;;;;;;;4955375;29;20106;-57
2023/12/02 04:52:29;;;;;;;1999.90;999.90;;;;;;;;;;4955330;29;20031;-58
2023/12/02 04:54:55;;;;;;;1999.90;999.90;;;;;;;;;;4955421;29;20445;-56
2023/12/02 04:57:21;;;;;;;1999.90;999.90;;;;;;;;;;4955401;29;20026;-55
2023/12/02 04:59:47;;;;;;;1999.90;999.90;;;;;;;;;;4955189;29;20035;-63
2023/12/02 05:02:14;;;;;;;1999.90;999.90;;;;;;;;;;4955282;29;20019;-56
2023/12/02 05:04:40;;;;;;;1999.90;999.90;;;;;;;;;;4955056;29;20027;-56
2023/12/02 05:07:07;;;;;;;1999.90;999.90;;;;;;;;;;4955239;29;20055;-57
2023/12/02 05:09:33;;;;;;;1999.90;999.90;;;;;;;;;;4955183;29;20448;-57
2023/12/02 05:11:59;;;;;;;1999.90;999.90;;;;;;;;;;4954800;28;20043;-55
2023/12/02 05:14:25;;;;;;;1999.90;999.90;;;;;;;;;;4954562;29;20047;-57
2023/12/02 05:16:52;;;;;;;1999.90;999.90;;;;;;;;;;4955035;29;20028;-55
2023/12/02 05:19:18;;;;;;;1999.90;999.90;;;;;;;;;;4954903;29;20078;-55
2023/12/02 05:21:44;;;;;;;1999.90;999.90;;;;;;;;;;4954544;29;20038;-55
2023/12/02 05:24:10;;;;;;;1999.90;999.90;;;;;;;;;;4954770;29;20517;-56
2023/12/02 05:26:36;;;;;;;1999.90;999.90;;;;;;;;;;4953625;28;20035;-55
2023/12/02 05:29:05;;;;;;;1999.90;999.90;;;;;;;;;;4954772;29;20038;-64
2023/12/02 05:31:31;;;;;;;1999.90;999.90;;;;;;;;;;4954650;29;20495;-60
2023/12/02 05:33:58;;;;;;;1999.90;999.90;;;;;;;;;;4954278;29;20810;-56
2023/12/02 05:36:24;;;;;;;1999.90;999.90;;;;;;;;;;4954809;29;20031;-64
2023/12/02 05:38:50;;;;;;;1999.90;999.90;;;;;;;;;;4954649;29;20054;-58
2023/12/02 05:41:16;;;;;;;1999.90;999.90;;;;;;;;;;4954687;29;20106;-54
2023/12/02 05:43:43;;;;;;;1999.90;999.90;;;;;;;;;;4954370;28;20036;-55
2023/12/02 05:46:15;;;;;;;1999.90;999.90;;;;;;;;;;4954341;29;20023;-55
2023/12/02 05:48:41;;;;;;;;;;;;;;;;;;4954896;29;20038;-55
2023/12/02 05:51:07;;;;;;;1999.90;999.90;;;;;;;;;;4954526;29;19910;-55
2023/12/02 05:53:33;;;;;;;1999.90;999.90;;;;;;;;;;4954248;29;20042;-57
2023/12/02 05:55:59;;;;;;;1999.90;999.90;;;;;;;;;;4954523;29;20106;-62
2023/12/02 05:58:25;;;;;;;1999.90;999.90;;;;;;;;;;4954188;29;20034;-63
2023/12/02 06:00:51;;;;;;;1999.90;999.90;;;;;;;;;;4954096;29;20190;-57
2023/12/02 06:03:17;;;;;;;1999.90;999.90;;;;;;;;;;4954264;29;20399;-55
2023/12/02 06:05:44;;;;;;;1999.90;999.90;;;;;;;;;;4954437;29;20035;-56
2023/12/02 06:08:10;;;;;;;1999.90;999.90;;;;;;;;;;4954035;29;20031;-58
2023/12/02 06:10:36;;;;;;;1999.90;999.90;;;;;;;;;;4954293;29;20420;-56
2023/12/02 06:13:02;;;;;;;1999.90;999.90;;;;;;;;;;4953670;28;20047;-55
2023/12/02 06:15:28;;;;;;;1999.90;999.90;;;;;;;;;;4954094;28;20082;-56
2023/12/02 06:17:56;;;;;;;1999.90;999.90;;;;;;;;;;4954046;29;20038;-58
2023/12/02 06:20:26;;;;;;;1999.90;999.90;;;;;;;;;;4953691;29;20114;-64
2023/12/02 06:22:52;;;;;;;1999.90;999.90;;;;;;;;;;4953717;29;20026;-58
2023/12/02 06:25:18;;;;;;;1999.90;999.90;;;;;;;;;;4953659;29;20574;-55
2023/12/02 06:27:45;;;;;;;1999.90;999.90;;;;;;;;;;4953692;29;20393;-55
2023/12/02 06:30:11;;;;;;;1999.90;999.90;;;;;;;;;;4953490;29;20030;-54
2023/12/02 06:32:37;;;;;;;1999.90;999.90;;;;;;;;;;4953213;29;20054;-61
2023/12/02 06:35:04;;;;;;;1999.90;999.90;;;;;;;;;;4953322;29;20110;-57
2023/12/02 06:37:30;;;;;;;1999.90;999.90;;;;;;;;;;4953056;28;20364;-54
2023/12/02 06:39:57;;;;;;;1999.90;999.90;;;;;;;;;;4953391;29;20030;-55
2023/12/02 06:42:23;;;;;;;1999.90;999.90;;;;;;;;;;4953262;29;20034;-57
2023/12/02 06:44:49;;;;;;;1999.90;999.90;;;;;;;;;;4936317;29;20028;-54
2023/12/02 06:47:15;;;;;;;1999.90;999.90;;;;;;;;;;4952164;29;20406;-56
2023/12/02 06:49:41;;;;;;;1999.90;999.90;;;;;;;;;;4951344;29;20393;-61
2023/12/02 06:52:08;;;;;;;1999.90;999.90;;;;;;;;;;4953201;29;20054;-61
2023/12/02 06:54:38;;;;;;;1999.90;999.90;;;;;;;;;;4953904;29;20046;-60
2023/12/02 06:57:05;;;;;;;1999.90;999.90;;;;;;;;;;4954603;29;20038;-64
2023/12/02 06:59:31;;;;;;;1999.90;999.90;;;;;;;;;;4957485;29;20023;-65
2023/12/02 07:01:57;;;;;;;1999.90;999.90;;;;;;;;;;4952917;29;20042;-57
2023/12/02 07:04:24;;;;;;;1999.90;999.90;;;;;;;;;;4953137;29;20080;-56
2023/12/02 07:06:50;;;;;;;1999.90;999.90;;;;;;;;;;4953037;29;20038;-66
2023/12/02 07:09:16;;;;;;;1999.90;999.90;;;;;;;;;;4952903;29;20128;-61
2023/12/02 07:11:42;;;;;;;1999.90;999.90;;;;;;;;;;4952355;28;20508;-56
2023/12/02 07:14:08;;;;;;;1999.90;999.90;;;;;;;;;;4952744;29;20051;-55
2023/12/02 07:16:36;;;;;;;1999.90;999.90;;;;;;;;;;4953545;29;20465;-60
2023/12/02 07:19:02;;;;;;;1999.90;999.90;;;;;;;;;;4956127;29;20561;-55
2023/12/02 07:21:28;;;;;;;1999.90;999.90;;;;;;;;;;4955185;29;20521;-59
2023/12/02 07:23:54;;;;;;;1999.90;999.90;;;;;;;;;;4952472;29;20031;-56
2023/12/02 07:26:20;;;;;;;1999.90;999.90;;;;;;;;;;4951465;29;20071;-55
2023/12/02 07:28:46;;;;;;;1999.90;999.90;;;;;;;;;;4951849;29;20027;-56
2023/12/02 07:31:13;;;;;;;1999.90;999.90;;;;;;;;;;4951971;29;20590;-64
2023/12/02 07:33:39;;;;;;;1999.90;999.90;;;;;;;;;;4953875;29;20038;-63
2023/12/02 07:36:05;;;;;;;1999.90;999.90;;;;;;;;;;4952483;29;20042;-62
2023/12/02 07:38:31;;;;;;;1999.90;999.90;;;;;;;;;;4951204;29;20031;-59
2023/12/02 07:40:57;;;;;;;1999.90;999.90;;;;;;;;;;4951593;29;20027;-56
2023/12/02 07:43:23;;;;;;;1999.90;999.90;;;;;;;;;;4951373;29;20459;-61
2023/12/02 07:45:50;;;;;;;1999.90;999.90;;;;;;;;;;4951283;29;20086;-64
2023/12/02 07:48:16;;;;;;;1999.90;999.90;;;;;;;;;;4946629;28;20023;-61
2023/12/02 07:50:42;;;;;;;1999.90;999.90;;;;;;;;;;4955065;29;20024;-56
2023/12/02 07:53:08;;;;;;;1999.90;999.90;;;;;;;;;;4955585;29;20399;-59
2023/12/02 07:55:34;;;;;;;1999.90;999.90;;;;;;;;;;4947274;29;20375;-56
2023/12/02 07:58:01;;;;;;;1999.90;999.90;;;;;;;;;;4945846;29;20039;-58
2023/12/02 08:00:27;;;;;;;1999.90;999.90;;;;;;;;;;4945702;29;20094;-55
2023/12/02 08:02:53;;;;;;;1999.90;999.90;;;;;;;;;;4946638;29;20023;-55
2023/12/02 08:05:20;;;;;;;1999.90;999.90;;;;;;;;;;4945362;29;20051;-57
2023/12/02 08:07:46;;;;;;;1999.90;999.90;;;;;;;;;;4950355;29;20027;-58
2023/12/02 08:10:12;;;;;;;1999.90;999.90;;;;;;;;;;4955965;29;20027;-56
2023/12/02 08:12:38;;;;;;;1999.90;999.90;;;;;;;;;;4955286;29;20054;-56
2023/12/02 08:15:07;;;;;;;1999.90;999.90;;;;;;;;;;4945233;29;20055;-65
2023/12/02 08:17:33;;;;;;;1999.90;999.90;;;;;;;;;;4942663;29;20022;-54
2023/12/02 08:20:00;;;;;;;1999.90;999.90;;;;;;;;;;4954585;29;20491;-61
2023/12/02 08:22:26;;;;;;;1999.90;999.90;;;;;;;;;;4955212;29;20058;-61
2023/12/02 08:24:52;;;;;;;1999.90;999.90;;;;;;;;;;4955363;29;20098;-62
2023/12/02 08:27:18;;;;;;;1999.90;999.90;;;;;;;;;;4955292;29;20027;-55
2023/12/02 08:29:44;;;;;;;1999.90;999.90;;;;;;;;;;4954842;29;20498;-57
2023/12/02 08:32:10;;;;;;;1999.90;999.90;;;;;;;;;;4955275;29;20023;-67
2023/12/02 08:34:36;;;;;;;1999.90;999.90;;;;;;;;;;4954835;29;20046;-64
2023/12/02 08:37:03;;;;;;;1999.90;999.90;;;;;;;;;;4953945;29;20039;-66
2023/12/02 08:39:29;;;;;;;1999.90;999.90;;;;;;;;;;4954455;29;20395;-62
2023/12/02 08:41:55;;;;;;;1999.90;999.90;;;;;;;;;;4954820;29;20030;-67
2023/12/02 08:44:22;;;;;;;1999.90;999.90;;;;;;;;;;4953936;29;20592;-55
2023/12/02 08:46:49;;;;;;;1999.90;999.90;;;;;;;;;;4954435;29;20514;-64
2023/12/02 08:49:15;;;;;;;1999.90;999.90;;;;;;;;;;4955133;29;20039;-61
2023/12/02 08:51:41;;;;;;;1999.90;999.90;;;;;;;;;;4937506;29;20043;-56
2023/12/02 08:54:07;;;;;;;1999.90;999.90;;;;;;;;;;4955115;29;20043;-56
2023/12/02 08:56:33;;;;;;;1999.90;999.90;;;;;;;;;;4954210;29;20511;-66
2023/12/02 08:58:59;;;;;;;1999.90;999.90;;;;;;;;;;4952492;29;20031;-64
2023/12/02 09:01:26;;;;;;;1999.90;999.90;;;;;;;;;;4953070;28;20041;-64
2023/12/02 09:03:52;;;;;;;1999.90;999.90;;;;;;;;;;4955178;29;20027;-55
2023/12/02 09:06:18;;;;;;;1999.90;999.90;;;;;;;;;;4954876;29;20042;-55
2023/12/02 09:08:44;;;;;;;1999.90;999.90;;;;;;;;;;4954897;29;20547;-60
2023/12/02 09:11:10;;;;;;;1999.90;999.90;;;;;;;;;;4954321;28;20035;-55
2023/12/02 09:13:39;;;;;;;1999.90;999.90;;;;;;;;;;4954775;29;20035;-56
2023/12/02 09:16:10;;;;;;;1999.90;999.90;;;;;;;;;;4954822;29;20050;-65
2023/12/02 09:18:36;;;;;;;1999.90;999.90;;;;;;;;;;4954592;29;20023;-57
2023/12/02 09:21:03;;;;;;;1999.90;999.90;;;;;;;;;;4954372;29;20061;-55
2023/12/02 09:23:29;;;;;;;1999.90;999.90;;;;;;;;;;4954395;29;20102;-57
2023/12/02 09:26:01;;;;;;;1999.90;999.90;;;;;;;;;;4954641;29;20031;-64
2023/12/02 09:28:29;;;;;;;1999.90;999.90;;;;;;;;;;4937044;29;20915;-56
2023/12/02 09:30:56;;;;;;;1999.90;999.90;;;;;;;;;;4954507;29;20086;-59
2023/12/02 09:33:22;;;;;;;1999.90;999.90;;;;;;;;;;4954062;29;20043;-59
2023/12/02 09:35:53;;;;;;;1999.90;999.90;;;;;;;;;;4954624;29;20558;-55
2023/12/02 09:38:20;;;;;;;1999.90;999.90;;;;;;;;;;4954300;29;20042;-56
2023/12/02 09:40:49;;;;;;;1999.90;999.90;;;;;;;;;;4953771;29;20031;-64
2023/12/02 09:43:24;;;;;;;1999.90;999.90;;;;;;;;;;4954229;29;20027;-56
2023/12/02 09:45:56;;;;;;;1999.90;999.90;;;;;;;;;;4953896;29;20023;-56
2023/12/02 09:48:22;;;;;;;;;;;;;;;;;;4954509;29;20045;-55
2023/12/02 09:51:00;;;;;;;1999.90;999.90;;;;;;;;;;4953978;29;20405;-56
2023/12/02 09:53:32;;;;;;;1999.90;999.90;;;;;;;;;;4953640;29;20031;-68
2023/12/02 09:56:04;;;;;;;1999.90;999.90;;;;;;;;;;4953816;29;20081;-67
2023/12/02 09:58:33;;;;;;;1999.90;999.90;;;;;;;;;;4953986;29;20019;-66
2023/12/02 10:01:08;;;;;;;1999.90;999.90;;;;;;;;;;4953587;29;20087;-58
2023/12/02 10:03:37;;;;;;;1999.90;999.90;;;;;;;;;;4953673;29;20055;-61
2023/12/02 10:06:06;;;;;;;1999.90;999.90;;;;;;;;;;4953609;29;20244;-68
2023/12/02 10:09:02;;;;;;;1999.90;999.90;;;;;;;;;;4953746;29;20065;-61
2023/12/02 10:11:36;;;;;;;1999.90;999.90;;;;;;;;;;4856187;29;20601;-56
2023/12/02 10:14:07;;;;;;;1999.90;999.90;;;;;;;;;;4856661;29;20476;-56
2023/12/02 10:16:34;;;;;;;1999.90;999.90;;;;;;;;;;4857238;29;20429;-68
2023/12/02 10:19:02;;;;;;;1999.90;999.90;;;;;;;;;;4857040;29;20033;-67
2023/12/02 10:21:29;;;;;;;1999.90;999.90;;;;;;;;;;4856950;29;20045;-55
2023/12/02 10:23:55;;;;;;;1999.90;999.90;;;;;;;;;;4856807;29;20418;-55
2023/12/02 10:26:54;;;;;;;1999.90;999.90;;;;;;;;;;4856827;29;20044;-62
2023/12/02 10:29:29;;;;;;;1999.90;999.90;;;;;;;;;;4807554;29;20083;-65
2023/12/02 10:32:15;;;;;;;1999.90;999.90;;;;;;;;;;4801901;29;20043;-56
2023/12/02 10:34:41;;;;;;;1999.90;999.90;;;;;;;;;;4801854;29;20051;-59
2023/12/02 10:37:09;;;;;;;1999.90;999.90;;;;;;;;;;4801837;29;20041;-67
2023/12/02 10:39:38;;;;;;;1999.90;999.90;;;;;;;;;;4801835;29;20539;-63
2023/12/02 10:42:05;;;;;;;1999.90;999.90;;;;;;;;;;4801871;29;20474;-62
2023/12/02 10:44:32;;;;;;;1999.90;999.90;;;;;;;;;;4801628;29;20480;-55
2023/12/02 10:46:59;;;;;;;1999.90;999.90;;;;;;;;;;4806769;29;20049;-59
2023/12/02 10:49:28;;;;;;;1999.90;999.90;;;;;;;;;;4838451;29;20073;-55
2023/12/02 10:51:55;;;;;;;1999.90;999.90;;;;;;;;;;4837839;29;20041;-65
2023/12/02 10:54:24;;;;;;;1999.90;999.90;;;;;;;;;;4837859;29;20078;-57
2023/12/02 10:56:51;;;;;;;1999.90;999.90;;;;;;;;;;4837950;29;20034;-63
2023/12/02 10:59:19;;;;;;;1999.90;999.90;;;;;;;;;;4822871;29;20075;-63
2023/12/02 11:01:45;;;;;;;1999.90;999.90;;;;;;;;;;4837915;29;20030;-54
2023/12/02 11:04:18;;;;;;;1999.90;999.90;;;;;;;;;;4856914;29;20099;-59
2023/12/02 11:06:54;;;;;;;1999.90;999.90;;;;;;;;;;4933544;29;20096;-59
2023/12/02 11:09:26;;;;;;;1999.90;999.90;;;;;;;;;;4933919;29;20106;-63
2023/12/02 11:12:22;;;;;;;1999.90;999.90;;;;;;;;;;4935570;29;20055;-59
2023/12/02 11:14:49;;;;;;;1999.90;999.90;;;;;;;;;;4943414;29;20054;-56
2023/12/02 11:17:24;;;;;;;1999.90;999.90;;;;;;;;;;4941380;29;20030;-56
2023/12/02 11:19:59;;;;;;;1999.90;999.90;;;;;;;;;;4942886;29;20031;-58
2023/12/02 11:22:41;;;;;;;1999.90;999.90;;;;;;;;;;4943353;29;20035;-55
2023/12/02 11:25:10;;;;;;;1999.90;999.90;;;;;;;;;;4941074;29;20114;-57
2023/12/02 11:27:54;;;;;;;1999.90;999.90;;;;;;;;;;4948458;29;20038;-67
2023/12/02 11:30:39;;;;;;;1999.90;999.90;;;;;;;;;;4952819;29;20475;-60
2023/12/02 11:33:11;;;;;;;1999.90;999.90;;;;;;;;;;4952835;29;20369;-56
2023/12/02 11:35:43;;;;;;;1999.90;999.90;;;;;;;;;;4952394;29;20454;-66
2023/12/02 11:38:09;;;;;;;;;;;;;;;;;;4953160;29;20030;-56
2023/12/02 11:40:44;;;;;;;1999.90;999.90;;;;;;;;;;4952383;29;19906;-67
2023/12/02 11:43:10;;;;;;;1999.90;999.90;;;;;;;;;;4944509;29;20067;-59
2023/12/02 11:45:41;;;;;;;1999.90;999.90;;;;;;;;;;4952383;29;20035;-66
2023/12/02 11:48:11;;;;;;;1999.90;999.90;;;;;;;;;;4952470;29;20027;-68
2023/12/02 11:50:50;;;;;;;1999.90;999.90;;;;;;;;;;4952555;29;20024;-57
2023/12/02 11:53:16;;;;;;;1999.90;999.90;;;;;;;;;;4952296;29;20357;-58
2023/12/02 11:56:06;;;;;;;1999.90;999.90;;;;;;;;;;4952270;29;20149;-65
2023/12/02 11:58:48;;;;;;;1999.90;999.90;;;;;;;;;;4951867;29;20034;-56
2023/12/02 12:01:32;;;;;;;1999.90;999.90;;;;;;;;;;4952170;29;20043;-69
2023/12/02 12:04:16;;;;;;;1999.90;999.90;;;;;;;;;;4952081;29;20031;-57
2023/12/02 12:06:42;;;;;;;1999.90;999.90;;;;;;;;;;4952117;29;20050;-65
2023/12/02 12:09:15;;;;;;;1999.90;999.90;;;;;;;;;;4951901;29;20063;-65
2023/12/02 12:11:42;;;;;;;1999.90;999.90;;;;;;;;;;4951655;28;20043;-60
2023/12/02 12:14:09;;;;;;;1999.90;999.90;;;;;;;;;;4951530;29;20134;-57
2023/12/02 12:16:35;;;;;;;1999.90;999.90;;;;;;;;;;4951674;29;20070;-56
2023/12/02 12:19:01;;;;;;;1999.90;999.90;;;;;;;;;;4951509;29;20350;-62
2023/12/02 12:21:27;;;;;;;1999.90;999.90;;;;;;;;;;4951507;29;20031;-69
2023/12/02 12:23:53;;;;;;;1999.90;999.90;;;;;;;;;;4951430;29;20034;-69
2023/12/02 12:26:19;;;;;;;1999.90;999.90;;;;;;;;;;4951700;29;20546;-59
2023/12/02 12:28:47;;;;;;;1999.90;999.90;;;;;;;;;;4951801;29;20030;-64
2023/12/02 12:31:13;;;;;;;1999.90;999.90;;;;;;;;;;4951459;29;20101;-57
2023/12/02 12:33:40;;;;;;;1999.90;999.90;;;;;;;;;;4951564;29;20035;-57
2023/12/02 12:36:06;;;;;;;1999.90;999.90;;;;;;;;;;4956145;28;20082;-63
2023/12/02 12:38:33;;;;;;;1999.90;999.90;;;;;;;;;;4955334;29;20054;-65
2023/12/02 12:41:00;;;;;;;1999.90;999.90;;;;;;;;;;4939678;29;20035;-68
2023/12/02 12:43:26;;;;;;;1999.90;999.90;;;;;;;;;;4955728;29;20110;-66
2023/12/02 12:45:53;;;;;;;1999.90;999.90;;;;;;;;;;4954845;29;20071;-56
2023/12/02 12:48:25;;;;;;;1999.90;999.90;;;;;;;;;;4954742;29;20043;-57
2023/12/02 12:50:54;;;;;;;1999.90;999.90;;;;;;;;;;4938125;29;20506;-68
2023/12/02 12:53:22;;;;;;;1999.90;999.90;;;;;;;;;;4948182;29;20154;-61
2023/12/02 12:55:52;;;;;;;1999.90;999.90;;;;;;;;;;4955050;29;20039;-57
2023/12/02 12:58:18;;;;;;;1999.90;999.90;;;;;;;;;;4954871;29;20039;-66
2023/12/02 13:00:50;;;;;;;1999.90;999.90;;;;;;;;;;4954967;29;20156;-57
2023/12/02 13:03:19;;;;;;;1999.90;999.90;;;;;;;;;;4954765;29;20035;-69
2023/12/02 13:05:48;;;;;;;1999.90;999.90;;;;;;;;;;4954761;29;20049;-56
2023/12/02 13:08:18;;;;;;;1999.90;999.90;;;;;;;;;;4954240;29;20035;-56
2023/12/02 13:10:47;;;;;;;1999.90;999.90;;;;;;;;;;4954057;29;20027;-55
2023/12/02 13:13:14;;;;;;;1999.90;999.90;;;;;;;;;;4954377;28;20634;-56
2023/12/02 13:15:42;;;;;;;1999.90;999.90;;;;;;;;;;4954677;29;20043;-68
2023/12/02 13:18:09;;;;;;;1999.90;999.90;;;;;;;;;;4954680;29;20031;-65
2023/12/02 13:20:36;;;;;;;1999.90;999.90;;;;;;;;;;4954376;29;20471;-59
2023/12/02 13:23:06;;;;;;;1999.90;999.90;;;;;;;;;;4937233;29;20031;-69
2023/12/02 13:25:41;;;;;;;1999.90;999.90;;;;;;;;;;4954580;29;20027;-64
2023/12/02 13:28:10;;;;;;;1999.90;999.90;;;;;;;;;;4954421;29;20031;-72
2023/12/02 13:30:39;;;;;;;1999.90;999.90;;;;;;;;;;4954231;29;20094;-65
2023/12/02 13:33:17;;;;;;;1999.90;999.90;;;;;;;;;;4954590;29;20034;-57
2023/12/02 13:35:43;;;;;;;1999.90;999.90;;;;;;;;;;4954855;29;20043;-58
2023/12/02 13:38:23;;;;;;;1999.90;999.90;;;;;;;;;;4954391;29;20066;-73
2023/12/02 13:41:08;;;;;;;1999.90;999.90;;;;;;;;;;4954002;29;20031;-74
2023/12/02 13:43:40;;;;;;;1999.90;999.90;;;;;;;;;;4954310;29;20126;-59
2023/12/02 13:46:06;;;;;;;1999.90;999.90;;;;;;;;;;4953978;28;20335;-70